Ust'- Judoma, Russia
Current Conditions -  °F | °C
As of 10:30 PM on Saturday 25 Oct 2014 (Local Time) from UEEE Reporting Station
Clear Clear  
Wind Chill: -6°   Ceiling: Unl
Heat Index: -6°   Visibility: 6mi
Dew Point: -8°   Wind: 0mph
Humidity: 92%   Direction: NA
Pressure: 30.39"   Gusts: NA
Location:  59.18°N, 135.15°E
Report Text: UEEE 251230Z 00000MPS CAVOK M21/M22 Q1029 NOSIG RMK QFE76323490150
Loading
Personal Weather Stations






























Interactive Weather Map
Tropical Storm Tracking
New forecast layout! Learn more

10-Day Weather Forecast

Advertisements
Track Severe Weather on mobile